Time;durP1;ratioP1;P1;durP2;ratioP2;P2;SDS_P1;SDS_P2;PMS_P1;PMS_P2;Temp;Humidity;BMP_temperature;BMP_pressure;BME280_temperature;BME280_humidity;BME280_pressure;Samples;Min_cycle;Max_cycle;Signal;HPM_P1;HPM_P2
2023/08/06 00:01:23;;;;;;;5.68;2.97;;;22.20;99.90;;;;;;4144013;28;20390;-63
2023/08/06 00:03:25;;;;;;;3.38;2.75;;;22.20;99.90;;;;;;4145377;28;20446;-63
2023/08/06 00:05:26;;;;;;;2.83;2.40;;;22.10;99.90;;;;;;4144499;28;20458;-64
2023/08/06 00:07:27;;;;;;;4.97;3.10;;;22.10;99.90;;;;;;4145914;28;20029;-63
2023/08/06 00:09:28;;;;;;;6.63;2.70;;;22.10;99.90;;;;;;4144389;28;20053;-64
2023/08/06 00:11:29;;;;;;;3.33;2.55;;;22.20;99.90;;;;;;4145443;28;20057;-64
2023/08/06 00:13:30;;;;;;;5.00;2.88;;;22.20;99.90;;;;;;4145202;28;20041;-63
2023/08/06 00:15:31;;;;;;;3.47;2.50;;;22.20;99.90;;;;;;4145136;28;20112;-63
2023/08/06 00:17:34;;;;;;;4.57;2.47;;;22.20;99.90;;;;;;4145525;28;20072;-65
2023/08/06 00:19:35;;;;;;;2.70;2.50;;;22.20;99.90;;;;;;4144988;28;20042;-64
2023/08/06 00:21:36;;;;;;;3.35;2.58;;;22.20;99.90;;;;;;4145422;28;20079;-62
2023/08/06 00:23:37;;;;;;;3.78;2.58;;;22.30;99.90;;;;;;4144346;28;20099;-63
2023/08/06 00:25:38;;;;;;;3.20;2.80;;;22.30;99.90;;;;;;4145171;28;20084;-62
2023/08/06 00:27:40;;;;;;;7.32;4.10;;;22.30;99.90;;;;;;4145058;28;20099;-62
2023/08/06 00:29:41;;;;;;;5.90;3.53;;;22.20;99.90;;;;;;4145753;28;20026;-63
2023/08/06 00:31:42;;;;;;;7.63;3.17;;;22.20;99.90;;;;;;4144186;28;20099;-63
2023/08/06 00:33:43;;;;;;;3.40;2.90;;;22.20;99.90;;;;;;4145913;28;20037;-62
2023/08/06 00:35:44;;;;;;;3.67;2.90;;;22.10;99.90;;;;;;4144517;28;20550;-62
2023/08/06 00:37:45;;;;;;;4.85;2.72;;;22.10;99.90;;;;;;4145658;28;20038;-62
2023/08/06 00:39:46;;;;;;;3.30;2.92;;;22.10;99.90;;;;;;4144606;28;20080;-64
2023/08/06 00:41:47;;;;;;;4.55;2.78;;;22.10;99.90;;;;;;4144716;28;20092;-63
2023/08/06 00:43:49;;;;;;;6.15;3.17;;;22.10;99.90;;;;;;4143347;28;20026;-64
2023/08/06 00:45:50;;;;;;;4.25;2.95;;;22.00;99.90;;;;;;4144802;28;20033;-63
2023/08/06 00:47:52;;;;;;;3.30;3.00;;;22.00;99.90;;;;;;4144882;28;20030;-64
2023/08/06 00:49:53;;;;;;;3.60;2.83;;;22.00;99.90;;;;;;4144582;28;20095;-65
2023/08/06 00:51:56;;;;;;;3.40;3.00;;;22.00;99.90;;;;;;4143920;28;20037;-63
2023/08/06 00:53:57;;;;;;;6.90;3.17;;;22.00;99.90;;;;;;4144375;28;20096;-64
2023/08/06 00:55:58;;;;;;;3.70;2.83;;;22.00;99.90;;;;;;4145210;28;20625;-63
2023/08/06 00:58:00;;;;;;;4.25;3.35;;;22.00;99.90;;;;;;4144881;28;20042;-63
2023/08/06 01:00:02;;;;;;;3.53;2.63;;;21.90;99.90;;;;;;4145250;28;20033;-64
2023/08/06 01:02:03;;;;;;;5.63;2.90;;;22.00;99.90;;;;;;4143727;28;20088;-63
2023/08/06 01:04:04;;;;;;;4.25;2.95;;;22.00;99.90;;;;;;4145415;28;20076;-63
2023/08/06 01:06:06;;;;;;;4.82;3.00;;;21.90;99.90;;;;;;4143991;28;20137;-64
2023/08/06 01:08:09;;;;;;;5.43;2.60;;;21.90;99.90;;;;;;4145458;28;20049;-64
2023/08/06 01:10:52;;;;;;;3.30;3.00;;;22.00;99.90;;;;;;4144220;28;20042;-64
2023/08/06 01:13:18;;;;;;;4.45;2.72;;;21.90;99.90;;;;;;4144358;28;20185;-63
2023/08/06 01:15:29;;;;;;;3.30;3.00;;;21.90;99.90;;;;;;4143676;28;20034;-64
2023/08/06 01:17:30;;;;;;;6.55;3.03;;;21.90;99.90;;;;;;4144715;28;20030;-63
2023/08/06 01:19:31;;;;;;;3.70;2.83;;;21.90;99.90;;;;;;4144008;28;20489;-64
2023/08/06 01:21:32;;;;;;;3.78;3.15;;;21.90;99.90;;;;;;4143998;28;20112;-63
2023/08/06 01:23:34;;;;;;;4.93;3.20;;;21.90;99.90;;;;;;4143688;28;20084;-63
2023/08/06 01:25:49;;;;;;;3.90;3.22;;;21.90;99.90;;;;;;4144569;28;20072;-62
2023/08/06 01:27:54;;;;;;;4.30;3.03;;;22.00;99.90;;;;;;4142850;28;20565;-63
2023/08/06 01:29:59;;;;;;;4.00;3.15;;;22.00;99.90;;;;;;4145391;28;20034;-63
2023/08/06 01:32:01;;;;;;;6.28;3.15;;;22.00;99.90;;;;;;4143655;28;20095;-63
2023/08/06 01:34:07;;;;;;;5.88;3.30;;;22.00;99.90;;;;;;4144795;28;20391;-63
2023/08/06 01:36:09;;;;;;;5.45;2.97;;;22.00;99.90;;;;;;4143415;28;20092;-63
2023/08/06 01:38:10;;;;;;;4.97;3.78;;;22.00;99.90;;;;;;4144562;28;20021;-64
2023/08/06 01:40:12;;;;;;;3.55;2.80;;;22.00;99.90;;;;;;4143166;28;20025;-64
2023/08/06 01:42:13;;;;;;;7.22;3.28;;;22.00;99.90;;;;;;4143473;28;20038;-63
2023/08/06 01:44:15;;;;;;;4.07;2.95;;;22.00;99.90;;;;;;4143694;28;20088;-64
2023/08/06 01:46:17;;;;;;;4.82;2.95;;;22.00;99.90;;;;;;4143351;28;20046;-63
2023/08/06 01:48:18;;;;;;;3.30;3.00;;;21.90;99.90;;;;;;4144104;28;20033;-64
2023/08/06 01:50:19;;;;;;;4.50;2.72;;;22.00;99.90;;;;;;4143700;28;20072;-63
2023/08/06 01:52:20;;;;;;;6.25;2.90;;;22.00;99.90;;;;;;4144902;28;20058;-62
2023/08/06 01:54:22;;;;;;;3.20;2.90;;;21.90;99.90;;;;;;4142503;28;20103;-63
2023/08/06 01:56:23;;;;;;;3.50;2.70;;;21.90;99.90;;;;;;4143707;28;20435;-62
2023/08/06 01:58:24;;;;;;;3.00;2.80;;;21.90;99.90;;;;;;4143624;28;20088;-63
2023/08/06 02:00:27;;;;;;;4.00;3.60;;;21.90;99.90;;;;;;4143581;28;20042;-63
2023/08/06 02:02:28;;;;;;;4.38;3.38;;;21.80;99.90;;;;;;4143367;28;20030;-62
2023/08/06 02:04:30;;;;;;;5.72;3.58;;;21.90;99.90;;;;;;4143305;28;20038;-62
2023/08/06 02:06:31;;;;;;;4.50;3.40;;;21.80;99.90;;;;;;4143214;28;20034;-62
2023/08/06 02:08:32;;;;;;;3.83;2.97;;;21.80;99.90;;;;;;4144535;28;20034;-62
2023/08/06 02:10:33;;;;;;;5.32;3.55;;;21.80;99.90;;;;;;4142475;28;20026;-63
2023/08/06 02:12:34;;;;;;;3.65;3.08;;;21.70;99.90;;;;;;4144387;28;20972;-63
2023/08/06 02:14:35;;;;;;;4.45;2.97;;;21.70;99.90;;;;;;4143642;28;20081;-63
2023/08/06 02:16:36;;;;;;;7.32;3.38;;;21.70;99.90;;;;;;4144174;28;20498;-63
2023/08/06 02:18:37;;;;;;;3.80;2.85;;;21.70;99.90;;;;;;4143680;28;20022;-63
2023/08/06 02:20:38;;;;;;;4.60;3.03;;;21.70;99.90;;;;;;4143700;28;20084;-63
2023/08/06 02:22:39;;;;;;;4.95;4.55;;;21.70;99.90;;;;;;4143162;28;20026;-63
2023/08/06 02:24:41;;;;;;;8.00;3.67;;;21.80;99.90;;;;;;4143047;28;20038;-63
2023/08/06 02:26:42;;;;;;;6.88;3.85;;;21.80;99.90;;;;;;4144257;28;20092;-62
2023/08/06 02:28:43;;;;;;;9.85;3.60;;;21.80;99.90;;;;;;4143839;28;20026;-62
2023/08/06 02:30:53;;;;;;;14.13;4.40;;;21.80;99.90;;;;;;4144147;28;20041;-63
2023/08/06 02:32:54;;;;;;;6.10;3.83;;;21.80;99.90;;;;;;4143407;28;20092;-62
2023/08/06 02:34:55;;;;;;;4.13;3.25;;;21.80;99.90;;;;;;4144380;28;20025;-61
2023/08/06 02:36:56;;;;;;;4.18;3.08;;;21.70;99.90;;;;;;4141926;28;20042;-62
2023/08/06 02:38:57;;;;;;;5.95;3.42;;;21.70;99.90;;;;;;4144073;28;20081;-64
2023/08/06 02:40:58;;;;;;;6.90;4.13;;;21.60;99.90;;;;;;4142632;28;20100;-63
2023/08/06 02:42:59;;;;;;;6.13;3.58;;;21.60;99.90;;;;;;4143395;28;20030;-63
2023/08/06 02:45:00;;;;;;;5.78;3.40;;;21.60;99.90;;;;;;4143456;28;20022;-63
2023/08/06 02:47:02;;;;;;;6.43;3.10;;;21.50;99.90;;;;;;4144049;28;20467;-63
2023/08/06 02:49:03;;;;;;;4.60;3.28;;;21.50;99.90;;;;;;4145949;28;20096;-64
2023/08/06 02:51:04;;;;;;;7.05;3.10;;;21.50;99.90;;;;;;4146118;28;20095;-63
2023/08/06 02:53:06;;;;;;;8.38;3.38;;;21.40;99.90;;;;;;4147035;28;20100;-63
2023/08/06 02:55:07;;;;;;;4.45;3.13;;;21.40;99.90;;;;;;4146026;28;20042;-64
2023/08/06 02:57:09;;;;;;;5.80;3.70;;;21.40;99.90;;;;;;4146940;28;20096;-65
2023/08/06 02:59:10;;;;;;;11.82;3.70;;;21.30;99.90;;;;;;4146360;28;20383;-64
2023/08/06 03:01:11;;;;;;;6.03;3.53;;;21.40;99.90;;;;;;4147157;28;20038;-64
2023/08/06 03:03:12;;;;;;;5.55;2.78;;;21.30;99.90;;;;;;4145982;28;20402;-62
2023/08/06 03:05:13;;;;;;;3.35;3.05;;;21.30;99.90;;;;;;4146775;28;20030;-62
2023/08/06 03:07:14;;;;;;;4.05;3.50;;;21.30;99.90;;;;;;4145618;28;20501;-63
2023/08/06 03:09:15;;;;;;;4.15;3.25;;;21.30;99.90;;;;;;4146997;28;20030;-63
2023/08/06 03:11:16;;;;;;;3.88;3.30;;;21.20;99.90;;;;;;4145533;28;20171;-62
2023/08/06 03:13:18;;;;;;;5.68;3.50;;;21.20;99.90;;;;;;4147048;28;20096;-63
2023/08/06 03:15:19;;;;;;;3.67;3.25;;;21.20;99.90;;;;;;4145903;28;20029;-62
2023/08/06 03:17:20;;;;;;;4.22;3.13;;;21.20;99.90;;;;;;4146048;28;20459;-61
2023/08/06 03:19:21;;;;;;;5.70;3.60;;;21.20;99.90;;;;;;4146088;28;20052;-62
2023/08/06 03:21:23;;;;;;;7.47;3.60;;;21.30;99.90;;;;;;4146015;28;20092;-62
2023/08/06 03:23:24;;;;;;;9.30;3.60;;;21.30;99.90;;;;;;4145699;28;20038;-62
2023/08/06 03:25:25;;;;;;;7.65;3.90;;;21.30;99.90;;;;;;4145504;28;20075;-63
2023/08/06 03:27:26;;;;;;;6.10;3.55;;;21.40;99.90;;;;;;4146197;28;20045;-62
2023/08/06 03:29:27;;;;;;;4.80;3.90;;;21.40;99.90;;;;;;4145226;28;20100;-64
2023/08/06 03:31:28;;;;;;;4.18;3.47;;;21.50;99.90;;;;;;4146588;28;20478;-63
2023/08/06 03:33:29;;;;;;;6.57;3.83;;;21.70;99.90;;;;;;4144066;28;20030;-62
2023/08/06 03:35:31;;;;;;;5.55;3.13;;;21.90;99.90;;;;;;4146943;28;20045;-62
2023/08/06 03:37:32;;;;;;;3.50;3.08;;;22.10;99.90;;;;;;4145401;28;20166;-64
2023/08/06 03:39:33;;;;;;;5.20;3.28;;;22.20;99.90;;;;;;4146566;28;20540;-63
2023/08/06 03:41:34;;;;;;;4.65;3.63;;;22.40;99.90;;;;;;4144963;28;20042;-63
2023/08/06 03:43:35;;;;;;;5.38;3.90;;;22.30;99.90;;;;;;4144295;28;20049;-64
2023/08/06 03:45:36;;;;;;;7.30;4.35;;;22.10;99.90;;;;;;4144008;28;20056;-63
2023/08/06 03:47:37;;;;;;;4.47;3.35;;;22.10;99.90;;;;;;4145778;28;20045;-62
2023/08/06 03:49:38;;;;;;;8.40;3.97;;;22.10;99.90;;;;;;4145521;28;20064;-62
2023/08/06 03:51:39;;;;;;;5.13;4.20;;;22.10;99.90;;;;;;4145577;28;20073;-62
2023/08/06 03:53:40;;;;;;;11.38;4.05;;;22.10;99.90;;;;;;4145775;28;20414;-62
2023/08/06 03:55:41;;;;;;;5.32;3.83;;;22.00;99.90;;;;;;4144448;28;20112;-63
2023/08/06 03:57:42;;;;;;;5.18;4.07;;;21.90;99.90;;;;;;4145932;28;20038;-62
2023/08/06 03:59:44;;;;;;;8.05;4.10;;;21.90;99.90;;;;;;4144643;28;20030;-62
2023/08/06 04:01:45;;;;;;;7.50;3.85;;;21.80;99.90;;;;;;4146186;28;20087;-61
2023/08/06 04:03:46;;;;;;;7.57;3.75;;;21.80;99.90;;;;;;4145284;28;20041;-62
2023/08/06 04:05:47;;;;;;;4.43;3.95;;;21.80;99.90;;;;;;4145901;28;20034;-62
2023/08/06 04:07:48;;;;;;;8.23;4.32;;;22.20;99.90;;;;;;4145234;28;20156;-62
2023/08/06 04:09:58;;;;;;;9.10;4.20;;;22.60;99.90;;;;;;4146409;28;20045;-63
2023/08/06 04:12:01;;;;;;;5.85;4.35;;;23.00;99.90;;;;;;4144942;28;20544;-62
2023/08/06 04:14:02;;;;;;;6.40;4.40;;;23.50;99.90;;;;;;4146161;28;20026;-62
2023/08/06 04:16:03;;;;;;;7.53;4.60;;;24.00;99.90;;;;;;4144709;28;20030;-62
2023/08/06 04:18:05;;;;;;;4.43;4.00;;;24.50;99.90;;;;;;4145774;28;20041;-63
2023/08/06 04:20:06;;;;;;;5.43;3.38;;;24.90;99.90;;;;;;4143085;28;20030;-62
2023/08/06 04:22:07;;;;;;;6.20;4.00;;;25.20;99.90;;;;;;4145437;28;20072;-62
2023/08/06 04:24:09;;;;;;;8.15;3.78;;;25.50;99.90;;;;;;4145220;28;20026;-63
2023/08/06 04:26:10;;;;;;;9.07;3.92;;;25.70;99.90;;;;;;4144753;28;20045;-64
2023/08/06 04:28:11;;;;;;;4.57;3.92;;;25.80;99.90;;;;;;4145314;28;20080;-64
2023/08/06 04:30:12;;;;;;;10.15;4.50;;;25.60;99.90;;;;;;4144631;28;20493;-65
2023/08/06 04:32:13;;;;;;;6.03;4.00;;;25.50;99.90;;;;;;4145859;28;20100;-64
2023/08/06 04:34:14;;;;;;;7.90;3.95;;;25.30;99.90;;;;;;4144255;28;20053;-64
2023/08/06 04:36:15;;;;;;;6.80;3.88;;;25.20;99.90;;;;;;4145493;28;20112;-62
2023/08/06 04:38:16;;;;;;;8.50;3.97;;;25.00;99.90;;;;;;4144401;28;20067;-63
2023/08/06 04:40:18;;;;;;;6.90;5.10;;;24.80;99.90;;;;;;4145545;28;20021;-62
2023/08/06 04:42:19;;;;;;;6.65;3.97;;;24.50;99.90;;;;;;4143966;28;20482;-62
2023/08/06 04:44:21;;;;;;;5.53;4.78;;;24.30;99.90;;;;;;4145097;28;21260;-64
2023/08/06 04:46:22;;;;;;;6.53;5.10;;;24.00;99.90;;;;;;4144255;28;20029;-64
2023/08/06 04:48:23;;;;;;;7.53;3.95;;;23.90;99.90;;;;;;4145389;28;20100;-64
2023/08/06 04:50:24;;;;;;;5.43;4.93;;;23.90;99.90;;;;;;4144269;28;20076;-62
2023/08/06 04:52:28;;;;;;;8.20;4.38;;;23.80;99.90;;;;;;4144882;28;20049;-62
2023/08/06 04:54:29;;;;;;;8.25;4.95;;;23.70;99.90;;;;;;4144436;28;20127;-63
2023/08/06 04:56:30;;;;;;;6.18;4.60;;;23.70;99.90;;;;;;4143118;28;20137;-62
2023/08/06 04:58:31;;;;;;;5.80;4.55;;;23.70;99.90;;;;;;4145018;28;20088;-61
2023/08/06 05:00:33;;;;;;;5.95;4.35;;;23.70;99.90;;;;;;4143005;28;20026;-62
2023/08/06 05:02:34;;;;;;;6.82;4.30;;;23.60;99.90;;;;;;4144933;28;20133;-63
2023/08/06 05:04:35;;;;;;;5.43;4.32;;;23.30;99.90;;;;;;4144069;28;20029;-63
2023/08/06 05:06:38;;;;;;;7.53;4.60;;;23.20;99.90;;;;;;4141314;28;20519;-63
2023/08/06 05:08:39;;;;;;;7.07;5.22;;;23.00;99.90;;;;;;4127733;28;20101;-63
2023/08/06 05:10:43;;;;;;;6.18;4.43;;;23.00;99.90;;;;;;4128460;28;20375;-63
2023/08/06 05:12:44;;;;;;;7.13;4.97;;;23.10;99.90;;;;;;4127408;28;20038;-62
2023/08/06 05:14:45;;;;;;;7.28;4.97;;;23.20;99.90;;;;;;4129670;28;20046;-62
2023/08/06 05:16:46;;;;;;;5.78;4.78;;;23.20;99.90;;;;;;4127581;28;20084;-61
2023/08/06 05:18:47;;;;;;;6.20;4.72;;;23.30;99.90;;;;;;4132471;28;20485;-63
2023/08/06 05:20:48;;;;;;;7.20;5.20;;;23.20;99.90;;;;;;4143602;28;20076;-63
2023/08/06 05:22:49;;;;;;;6.68;4.90;;;23.10;99.90;;;;;;4143379;28;20037;-63
2023/08/06 05:24:50;;;;;;;6.80;4.63;;;22.90;99.90;;;;;;4144039;28;20379;-62
2023/08/06 05:26:51;;;;;;;5.38;4.88;;;22.90;99.90;;;;;;4144110;28;20084;-64
2023/08/06 05:28:53;;;;;;;6.65;5.13;;;22.90;99.90;;;;;;4144354;28;20461;-63
2023/08/06 05:30:54;;;;;;;6.53;4.97;;;22.80;99.90;;;;;;4142612;28;20475;-63
2023/08/06 05:32:55;;;;;;;9.40;5.07;;;22.70;99.90;;;;;;4144632;28;20046;-64
2023/08/06 05:34:56;;;;;;;6.50;5.25;;;22.70;99.90;;;;;;4143513;28;20088;-63
2023/08/06 05:36:57;;;;;;;6.28;5.00;;;22.60;99.90;;;;;;4144606;28;20084;-62
2023/08/06 05:38:58;;;;;;;6.00;5.20;;;22.50;99.90;;;;;;4143381;28;20045;-64
2023/08/06 05:40:59;;;;;;;9.60;5.43;;;22.50;99.90;;;;;;4144563;28;20050;-64
2023/08/06 05:43:00;;;;;;;7.35;5.05;;;22.50;99.90;;;;;;4143721;28;20418;-64
2023/08/06 05:45:02;;;;;;;7.70;6.25;;;22.40;99.90;;;;;;4144947;28;20033;-64
2023/08/06 05:47:03;;;;;;;6.10;5.50;;;22.40;99.90;;;;;;4143427;28;20085;-63
2023/08/06 05:49:05;;;;;;;6.20;5.60;;;22.30;99.90;;;;;;4144994;28;20037;-63
2023/08/06 05:51:06;;;;;;;6.10;5.50;;;22.10;99.90;;;;;;4143650;28;20037;-63
2023/08/06 05:53:07;;;;;;;6.35;4.90;;;22.10;99.90;;;;;;4144316;28;20179;-63
2023/08/06 05:55:08;;;;;;;8.00;5.97;;;21.90;99.90;;;;;;4143818;28;20081;-64
2023/08/06 05:57:09;;;;;;;15.98;8.93;;;21.70;99.90;;;;;;4143942;28;20410;-64
2023/08/06 05:59:10;;;;;;;24.33;8.05;;;21.40;99.90;;;;;;4144291;28;20046;-63
2023/08/06 06:01:12;;;;;;;9.02;6.28;;;21.10;99.90;;;;;;4143992;28;20034;-64
2023/08/06 06:03:13;;;;;;;9.18;6.35;;;21.00;99.90;;;;;;4144557;28;20104;-64
2023/08/06 06:05:14;;;;;;;10.52;7.30;;;20.90;99.90;;;;;;4143383;28;20371;-64
2023/08/06 06:07:15;;;;;;;35.20;9.32;;;20.80;99.90;;;;;;4144587;28;20129;-64
2023/08/06 06:09:16;;;;;;;26.90;11.45;;;20.80;99.90;;;;;;4143341;28;20092;-62
2023/08/06 06:11:21;;;;;;;23.13;11.57;;;20.90;99.90;;;;;;4144448;28;20021;-63
2023/08/06 06:13:23;;;;;;;13.45;10.30;;;21.10;99.90;;;;;;4143326;28;20030;-63
2023/08/06 06:15:24;;;;;;;31.13;14.73;;;21.20;99.90;;;;;;4144378;28;20446;-63
2023/08/06 06:17:26;;;;;;;19.95;14.65;;;21.50;99.90;;;;;;4143093;28;20073;-64
2023/08/06 06:19:27;;;;;;;17.20;13.05;;;21.60;99.90;;;;;;4144385;28;20049;-64
2023/08/06 06:21:28;;;;;;;13.20;10.27;;;22.00;99.90;;;;;;4143282;28;20384;-63
2023/08/06 06:23:29;;;;;;;10.57;7.85;;;22.60;99.90;;;;;;4145616;28;20046;-65
2023/08/06 06:25:30;;;;;;;7.72;6.75;;;23.30;99.90;;;;;;4146365;28;20112;-63
2023/08/06 06:27:31;;;;;;;12.57;6.43;;;23.50;99.90;;;;;;4147076;28;20050;-63
2023/08/06 06:29:32;;;;;;;24.63;9.60;;;23.60;99.90;;;;;;4146864;28;20431;-62
2023/08/06 06:31:33;;;;;;;14.25;8.55;;;23.50;99.90;;;;;;4146780;28;20038;-63
2023/08/06 06:33:35;;;;;;;20.85;7.80;;;23.30;99.90;;;;;;4147107;28;20336;-63
2023/08/06 06:35:37;;;;;;;14.15;6.30;;;23.20;99.90;;;;;;4146356;28;20029;-62
2023/08/06 06:37:38;;;;;;;9.55;5.60;;;23.10;99.90;;;;;;4137701;28;20050;-62
2023/08/06 06:39:39;;;;;;;7.15;5.07;;;22.90;99.90;;;;;;4129924;28;20691;-63
2023/08/06 06:41:40;;;;;;;9.10;5.85;;;22.90;99.90;;;;;;4131196;28;20558;-63
2023/08/06 06:43:42;;;;;;;10.05;5.68;;;23.10;99.90;;;;;;4129790;28;20034;-64
2023/08/06 06:45:43;;;;;;;16.00;7.15;;;23.30;99.90;;;;;;4141809;28;20080;-64
2023/08/06 06:47:44;;;;;;;16.02;8.02;;;23.40;99.90;;;;;;4146119;28;20104;-64
2023/08/06 06:49:45;;;;;;;16.75;7.90;;;23.80;99.90;;;;;;4147056;28;20077;-64
2023/08/06 06:51:46;;;;;;;9.93;5.80;;;24.30;99.90;;;;;;4130190;28;20073;-64
2023/08/06 06:53:47;;;;;;;11.38;6.13;;;24.50;99.90;;;;;;4130891;28;20108;-63
2023/08/06 06:55:49;;;;;;;8.85;5.40;;;24.60;99.90;;;;;;4129746;28;20550;-63
2023/08/06 06:57:50;;;;;;;10.60;5.93;;;24.70;99.90;;;;;;4130448;28;20023;-64
2023/08/06 06:59:51;;;;;;;9.68;5.90;;;24.50;99.90;;;;;;4138655;28;20069;-65
2023/08/06 07:01:52;;;;;;;10.05;6.57;;;24.20;99.90;;;;;;4146577;28;20430;-63
2023/08/06 07:03:53;;;;;;;5.68;4.68;;;24.10;99.90;;;;;;4146559;28;20077;-62
2023/08/06 07:06:00;;;;;;;10.63;5.40;;;24.20;99.90;;;;;;4145578;28;20034;-65
2023/08/06 07:08:02;;;;;;;5.15;4.43;;;24.10;99.90;;;;;;4142678;28;20127;-65
2023/08/06 07:10:04;;;;;;;7.10;4.47;;;24.00;99.90;;;;;;4145257;28;20087;-63
2023/08/06 07:12:05;;;;;;;5.10;4.18;;;23.90;99.90;;;;;;4146377;28;20088;-63
2023/08/06 07:14:08;;;;;;;6.13;4.53;;;23.70;99.90;;;;;;4141950;28;20031;-62
2023/08/06 07:16:09;;;;;;;4.72;4.32;;;23.40;99.90;;;;;;4130548;28;20408;-64
2023/08/06 07:18:10;;;;;;;5.65;4.40;;;23.20;99.90;;;;;;4145220;28;20033;-63
2023/08/06 07:20:11;;;;;;;6.15;5.55;;;23.10;99.90;;;;;;4146796;28;20045;-62
2023/08/06 07:22:12;;;;;;;6.00;5.40;;;23.00;99.90;;;;;;4145412;28;20057;-62
2023/08/06 07:24:13;;;;;;;9.00;5.90;;;22.70;99.90;;;;;;4146520;28;20457;-64
2023/08/06 07:26:15;;;;;;;152.95;66.75;;;22.50;99.90;;;;;;4144989;28;20033;-63
2023/08/06 07:28:17;;;;;;;7.57;6.22;;;22.50;99.90;;;;;;4145909;28;20034;-63
2023/08/06 07:30:18;;;;;;;6.68;5.75;;;22.80;99.90;;;;;;4145386;28;20030;-62
2023/08/06 07:32:19;;;;;;;13.68;8.77;;;23.10;99.90;;;;;;4145950;28;20030;-62
2023/08/06 07:34:20;;;;;;;22.85;11.60;;;23.30;99.90;;;;;;4145627;28;20046;-63
2023/08/06 07:36:21;;;;;;;8.18;6.00;;;23.60;99.90;;;;;;4145461;28;20069;-63
2023/08/06 07:38:22;;;;;;;29.10;13.35;;;23.80;99.90;;;;;;4145680;28;20084;-62
2023/08/06 07:40:24;;;;;;;22.13;11.90;;;23.90;99.90;;;;;;4144803;28;20038;-63
2023/08/06 07:42:25;;;;;;;36.65;15.45;;;24.00;99.90;;;;;;4146147;28;20434;-61
2023/08/06 07:44:26;;;;;;;9.82;6.88;;;24.00;99.90;;;;;;4143847;28;20513;-67
2023/08/06 07:46:27;;;;;;;12.50;5.80;;;23.90;99.90;;;;;;4146140;28;20038;-62
2023/08/06 07:48:28;;;;;;;5.88;5.28;;;23.80;99.90;;;;;;4144740;28;20727;-63
2023/08/06 07:50:30;;;;;;;7.78;5.22;;;23.80;99.90;;;;;;4146122;28;20022;-63
2023/08/06 07:52:31;;;;;;;7.60;4.65;;;23.90;99.90;;;;;;4144765;28;20088;-62
2023/08/06 07:54:32;;;;;;;5.00;4.50;;;24.00;99.90;;;;;;4145979;28;20096;-62
2023/08/06 07:56:33;;;;;;;6.55;5.30;;;24.10;99.90;;;;;;4144356;28;20123;-61
2023/08/06 07:58:34;;;;;;;6.70;5.20;;;24.10;99.90;;;;;;4145410;28;20084;-62
2023/08/06 08:00:35;;;;;;;6.50;5.60;;;24.10;99.90;;;;;;4144751;28;20033;-61
2023/08/06 08:02:37;;;;;;;6.95;5.22;;;24.10;99.90;;;;;;4145841;28;20111;-61
2023/08/06 08:04:38;;;;;;;8.13;5.20;;;24.00;99.90;;;;;;4145622;28;20026;-62
2023/08/06 08:06:39;;;;;;;5.18;4.68;;;23.80;99.90;;;;;;4144904;28;20030;-61
2023/08/06 08:08:40;;;;;;;7.05;5.05;;;23.60;99.90;;;;;;4145909;28;20080;-61
2023/08/06 08:10:42;;;;;;;6.00;5.00;;;23.40;99.90;;;;;;4144418;28;20429;-65
2023/08/06 08:12:43;;;;;;;6.00;5.40;;;23.10;99.90;;;;;;4145575;28;20445;-63
2023/08/06 08:14:45;;;;;;;7.50;5.30;;;22.90;99.90;;;;;;4132162;28;20046;-64
2023/08/06 08:16:46;;;;;;;7.45;5.38;;;22.60;99.90;;;;;;4134958;28;20129;-64
2023/08/06 08:18:47;;;;;;;6.32;5.72;;;22.40;99.90;;;;;;4144018;28;20026;-63
2023/08/06 08:20:48;;;;;;;6.38;5.78;;;22.10;99.90;;;;;;4145691;28;20034;-63
2023/08/06 08:22:50;;;;;;;5.00;4.15;;;21.90;99.90;;;;;;4144674;28;20042;-64
2023/08/06 08:24:51;;;;;;;7.65;5.03;;;21.70;99.90;;;;;;4144200;28;20100;-62
2023/08/06 08:26:52;;;;;;;4.45;3.97;;;21.50;99.90;;;;;;4144378;28;20030;-63
2023/08/06 08:28:54;;;;;;;4.60;3.65;;;21.40;99.90;;;;;;4145499;28;20030;-62
2023/08/06 08:30:55;;;;;;;4.82;3.33;;;21.30;99.90;;;;;;4144666;28;20034;-62
2023/08/06 08:32:56;;;;;;;3.33;2.47;;;21.20;99.90;;;;;;4145500;28;20552;-62
2023/08/06 08:34:57;;;;;;;1.95;1.83;;;21.20;99.90;;;;;;4145279;28;20058;-62
2023/08/06 08:36:58;;;;;;;2.75;2.13;;;21.20;99.90;;;;;;4142746;28;20415;-61
2023/08/06 08:38:59;;;;;;;2.60;2.03;;;21.20;99.90;;;;;;4145323;28;20034;-64
2023/08/06 08:41:00;;;;;;;1.55;1.45;;;21.20;99.90;;;;;;4141788;28;20437;-61
2023/08/06 08:43:02;;;;;;;2.47;2.00;;;21.30;99.90;;;;;;4144724;28;20478;-60
2023/08/06 08:45:06;;;;;;;179.30;85.47;;;21.20;99.90;;;;;;4144260;28;20084;-62
2023/08/06 08:47:10;;;;;;;7.15;3.72;;;21.40;99.90;;;;;;4139370;28;20129;-61
2023/08/06 08:49:12;;;;;;;5.40;3.17;;;21.70;99.90;;;;;;4128172;28;20038;-61
2023/08/06 08:51:13;;;;;;;2.63;2.42;;;21.90;99.90;;;;;;4129832;28;20038;-61
2023/08/06 08:53:16;;;;;;;3.03;2.03;;;22.00;99.90;;;;;;4127695;28;20046;-63
2023/08/06 08:55:17;;;;;;;2.25;2.05;;;21.90;99.90;;;;;;4128828;28;20035;-62
2023/08/06 08:57:20;;;;;;;3.92;2.40;;;21.80;99.90;;;;;;4127449;28;20042;-61
2023/08/06 08:59:21;;;;;;;3.00;2.63;;;21.70;99.90;;;;;;4128812;28;20064;-61
2023/08/06 09:01:22;;;;;;;6.00;2.80;;;21.70;99.90;;;;;;4127974;28;20061;-63
2023/08/06 09:03:24;;;;;;;3.67;3.13;;;21.80;99.90;;;;;;4128668;28;20475;-63
2023/08/06 09:05:30;;;;;;;5.18;2.88;;;21.90;99.90;;;;;;4128383;28;20084;-60
2023/08/06 09:07:52;;;;;;;10.80;3.75;;;21.90;99.90;;;;;;4128376;28;20030;-60
2023/08/06 09:09:54;;;;;;;2.55;2.30;;;21.80;99.90;;;;;;4127870;28;20168;-60
2023/08/06 09:12:01;;;;;;;3.70;2.22;;;21.80;99.90;;;;;;4128155;28;20034;-61
2023/08/06 09:14:02;;;;;;;6.90;3.42;;;21.90;99.90;;;;;;4127788;28;20496;-61
2023/08/06 09:16:03;;;;;;;2.45;1.90;;;22.10;99.90;;;;;;4127869;28;20088;-61
2023/08/06 09:18:12;;;;;;;5.10;1.98;;;22.20;99.90;;;;;;4144313;28;20033;-61
2023/08/06 09:20:14;;;;;;;1.92;1.83;;;22.40;99.90;;;;;;4144047;28;20034;-59
2023/08/06 09:22:15;;;;;;;2.13;1.92;;;22.50;99.90;;;;;;4144610;28;20018;-62
2023/08/06 09:24:17;;;;;;;2.55;2.15;;;22.60;99.90;;;;;;4143620;28;20491;-60
2023/08/06 09:26:18;;;;;;;2.38;2.17;;;22.60;99.90;;;;;;4144672;28;20029;-60
2023/08/06 09:28:19;;;;;;;1.50;1.40;;;22.70;99.90;;;;;;4143220;28;20483;-60
2023/08/06 09:30:38;;;;;;;1.95;1.55;;;22.80;99.90;;;;;;4144892;28;20107;-60
2023/08/06 09:32:47;;;;;;;1.58;1.45;;;22.90;99.90;;;;;;4144123;28;20461;-63
2023/08/06 09:34:56;;;;;;;3.22;2.10;;;23.00;99.90;;;;;;4144613;28;20048;-62
2023/08/06 09:36:57;;;;;;;1.92;1.67;;;23.10;99.90;;;;;;4142283;28;20026;-61
2023/08/06 09:38:58;;;;;;;13.00;3.25;;;23.30;99.90;;;;;;4144435;28;20030;-61
2023/08/06 09:40:59;;;;;;;2.47;1.73;;;23.40;99.90;;;;;;4143066;28;20497;-60
2023/08/06 09:43:00;;;;;;;2.60;1.48;;;23.70;99.90;;;;;;4144449;28;20106;-63
2023/08/06 09:45:08;;;;;;;52.80;22.17;;;23.90;99.90;;;;;;4143181;28;20030;-61
2023/08/06 09:47:09;;;;;;;1.40;1.30;;;24.20;99.90;;;;;;4144630;28;20053;-61
2023/08/06 09:49:10;;;;;;;1.58;1.35;;;24.40;99.90;;;;;;4143180;28;20382;-61
2023/08/06 09:51:13;;;;;;;0.98;0.88;;;24.40;99.90;;;;;;4144329;28;20084;-61
2023/08/06 09:53:14;;;;;;;1.10;1.10;;;24.30;99.90;;;;;;4143607;28;20108;-60
2023/08/06 09:55:16;;;;;;;1.95;1.40;;;24.20;99.90;;;;;;4142615;28;20108;-59
2023/08/06 09:57:17;;;;;;;1.40;1.10;;;24.40;99.90;;;;;;4143674;28;20042;-60
2023/08/06 09:59:19;;;;;;;1.33;1.20;;;24.70;99.90;;;;;;4147022;28;20026;-59
2023/08/06 10:01:21;;;;;;;1.30;1.10;;;25.00;99.90;;;;;;4147704;28;20038;-63
2023/08/06 10:03:24;;;;;;;3.17;1.10;;;25.20;99.90;;;;;;4147111;28;20148;-60
2023/08/06 10:05:27;;;;;;;1.00;0.90;;;25.30;99.90;;;;;;4147744;28;20446;-62
2023/08/06 10:07:30;;;;;;;1.98;1.13;;;25.20;99.90;;;;;;4146768;28;20088;-68
2023/08/06 10:09:31;;;;;;;1.77;1.23;;;25.20;99.90;;;;;;4147544;28;20026;-60
2023/08/06 10:11:33;;;;;;;1.10;1.05;;;25.00;99.90;;;;;;4146672;28;20490;-60
2023/08/06 10:13:35;;;;;;;4.28;1.33;;;24.80;99.90;;;;;;4147521;28;20033;-60
2023/08/06 10:15:38;;;;;;;2.67;1.10;;;24.80;99.90;;;;;;4146544;28;20091;-61
2023/08/06 10:17:40;;;;;;;1.80;0.98;;;24.80;99.90;;;;;;4134586;28;20092;-61
2023/08/06 10:19:42;;;;;;;0.90;0.90;;;24.50;99.90;;;;;;4130265;28;20116;-60
2023/08/06 10:22:13;;;;;;;1.40;1.30;;;24.60;99.90;;;;;;4131366;28;20120;-59
2023/08/06 10:24:14;;;;;;;1.27;1.02;;;24.60;99.90;;;;;;4129726;28;20039;-60
2023/08/06 10:26:16;;;;;;;3.25;1.23;;;24.50;99.90;;;;;;4131269;28;20042;-60
2023/08/06 10:28:19;;;;;;;2.28;1.20;;;24.70;99.90;;;;;;4129577;28;20030;-61
2023/08/06 10:30:33;;;;;;;1.23;1.13;;;25.00;99.90;;;;;;4130353;28;20043;-60
2023/08/06 10:32:52;;;;;;;1.70;0.90;;;25.10;99.90;;;;;;4129915;28;20038;-61
2023/08/06 10:34:55;;;;;;;1.15;1.05;;;25.10;99.90;;;;;;4131475;28;20450;-61